This is the latest recevied weather packets stored in our database for station/object KO4LCK. If no packets are shown the sender has not sent any weather packets the latest 10 day(s).
| Time | Temp. | Humidity | Pressure | Rain* | Wind** | Luminosity | Snow |
|---|---|---|---|---|---|---|---|
| 1777742058 | 19.44° C | 40% | 1015.5 hPa | 0 mm | - | 703 W/m² | - |
| 1777741756 | 18.33° C | 47% | 1015.5 hPa | 0 mm | - | 651 W/m² | - |
| 1777741452 | 18.89° C | 40% | 1015.5 hPa | 0 mm | - | 563 W/m² | - |
| 1777741148 | 18.33° C | 43% | 1015.4 hPa | 0 mm | - | 666 W/m² | - |
| 1777740846 | 18.33° C | 45% | 1015.7 hPa | 0 mm | - | 503 W/m² | - |
| 1777740542 | 18.33° C | 42% | 1015.5 hPa | 0 mm | - | 468 W/m² | - |
| 1777740239 | 18.33° C | 44% | 1015.5 hPa | 0 mm | - | 577 W/m² | - |
| 1777739935 | 17.78° C | 43% | 1015.5 hPa | 0 mm | - | 451 W/m² | - |
| 1777739631 | 17.78° C | 47% | 1015.8 hPa | 0 mm | - | 399 W/m² | - |
| 1777739329 | 18.33° C | 41% | 1015.5 hPa | 0 mm | - | 394 W/m² | - |
| 1777739025 | 18.33° C | 44% | 1015.6 hPa | 0 mm | - | 587 W/m² | - |
| 1777738723 | 18.89° C | 43% | 1015.5 hPa | 0 mm | - | 440 W/m² | - |
| 1777738419 | 18.89° C | 45% | 1015.6 hPa | 0 mm | - | 696 W/m² | - |
| 1777738117 | 18.33° C | 47% | 1015.7 hPa | 0 mm | - | 628 W/m² | - |
| 1777737815 | 17.78° C | 46% | 1015.6 hPa | 0 mm | - | 592 W/m² | - |
| 1777737514 | 17.78° C | 45% | 1015.7 hPa | 0 mm | - | 728 W/m² | - |
| 1777737211 | 18.33° C | 41% | 1015.6 hPa | 0 mm | - | 677 W/m² | - |
| 1777736907 | 18.33° C | 44% | 1015.6 hPa | 0 mm | - | 746 W/m² | - |
| 1777736299 | 18.33° C | 46% | 1015.6 hPa | 0 mm | - | 717 W/m² | - |
| 1777735995 | 17.78° C | 49% | 1015.7 hPa | 0 mm | - | 780 W/m² | - |
| 1777735693 | 17.22° C | 52% | 1015.5 hPa | 0 mm | - | 797 W/m² | - |
| 1777735390 | 17.22° C | 48% | 1015.7 hPa | 0 mm | - | 829 W/m² | - |
| 1777735088 | 17.22° C | 48% | 1015.5 hPa | 0 mm | - | 615 W/m² | - |
| 1777734785 | 17.22° C | 51% | 1015.4 hPa | 0 mm | - | 655 W/m² | - |
| 1777734483 | 16.67° C | 53% | 1015.3 hPa | 0 mm | - | 333 W/m² | - |
* Rain latest hour (hover to see other rain measurements)
** Current wind speed in m/s (hover to see current wind gust speed)